sensor_id;sensor_type;location;lat;lon;timestamp;P1;durP1;ratioP1;P2;durP2;ratioP2
53688;SDS011;39583;54.682;30.662;2024-01-25T07:31:39;9.45;;;4.35;;
53688;SDS011;39583;54.682;30.662;2024-01-25T07:34:07;5.85;;;3.40;;
53688;SDS011;39583;54.682;30.662;2024-01-25T07:36:35;6.38;;;3.40;;
53688;SDS011;39583;54.682;30.662;2024-01-25T07:39:03;6.25;;;3.15;;
53688;SDS011;39583;54.682;30.662;2024-01-25T07:41:30;6.32;;;3.60;;
53688;SDS011;39583;54.682;30.662;2024-01-25T07:43:58;7.97;;;4.13;;
53688;SDS011;39583;54.682;30.662;2024-01-25T07:46:25;6.68;;;3.70;;
53688;SDS011;39583;54.682;30.662;2024-01-25T07:48:53;5.43;;;3.17;;
53688;SDS011;39583;54.682;30.662;2024-01-25T07:51:21;6.38;;;3.75;;
53688;SDS011;39583;54.682;30.662;2024-01-25T07:53:48;5.57;;;3.10;;
53688;SDS011;39583;54.682;30.662;2024-01-25T07:56:16;6.43;;;2.92;;
53688;SDS011;39583;54.682;30.662;2024-01-25T07:58:43;6.50;;;4.15;;
53688;SDS011;39583;54.682;30.662;2024-01-25T08:01:11;5.85;;;3.28;;
53688;SDS011;39583;54.682;30.662;2024-01-25T08:03:39;4.55;;;2.40;;
53688;SDS011;39583;54.682;30.662;2024-01-25T08:06:07;5.57;;;2.85;;
53688;SDS011;39583;54.682;30.662;2024-01-25T08:08:35;4.63;;;2.72;;
53688;SDS011;39583;54.682;30.662;2024-01-25T08:11:02;3.60;;;2.35;;
53688;SDS011;39583;54.682;30.662;2024-01-25T08:13:31;5.40;;;2.60;;
53688;SDS011;39583;54.682;30.662;2024-01-25T08:16:01;4.97;;;2.50;;
53688;SDS011;39583;54.682;30.662;2024-01-25T08:18:29;4.22;;;2.85;;
53688;SDS011;39583;54.682;30.662;2024-01-25T08:20:58;4.53;;;2.83;;
53688;SDS011;39583;54.682;30.662;2024-01-25T08:23:25;5.07;;;2.70;;
53688;SDS011;39583;54.682;30.662;2024-01-25T08:25:53;4.88;;;2.63;;
53688;SDS011;39583;54.682;30.662;2024-01-25T08:28:21;6.53;;;2.72;;
53688;SDS011;39583;54.682;30.662;2024-01-25T08:30:48;6.50;;;3.10;;
53688;SDS011;39583;54.682;30.662;2024-01-25T08:33:16;10.95;;;3.08;;
53688;SDS011;39583;54.682;30.662;2024-01-25T08:35:44;6.28;;;3.38;;
53688;SDS011;39583;54.682;30.662;2024-01-25T08:38:12;5.53;;;3.17;;
53688;SDS011;39583;54.682;30.662;2024-01-25T08:40:39;4.40;;;2.72;;
53688;SDS011;39583;54.682;30.662;2024-01-25T08:43:07;4.97;;;2.55;;
53688;SDS011;39583;54.682;30.662;2024-01-25T08:45:34;6.15;;;3.20;;
53688;SDS011;39583;54.682;30.662;2024-01-25T08:48:02;6.63;;;2.88;;
53688;SDS011;39583;54.682;30.662;2024-01-25T08:50:30;5.60;;;2.95;;
53688;SDS011;39583;54.682;30.662;2024-01-25T08:52:58;5.38;;;2.72;;
53688;SDS011;39583;54.682;30.662;2024-01-25T08:55:27;8.32;;;2.63;;
53688;SDS011;39583;54.682;30.662;2024-01-25T08:57:54;5.50;;;2.60;;
53688;SDS011;39583;54.682;30.662;2024-01-25T09:00:22;4.55;;;2.60;;
53688;SDS011;39583;54.682;30.662;2024-01-25T09:02:50;7.88;;;2.60;;
53688;SDS011;39583;54.682;30.662;2024-01-25T09:05:18;5.18;;;2.20;;
53688;SDS011;39583;54.682;30.662;2024-01-25T09:07:48;4.10;;;2.40;;
53688;SDS011;39583;54.682;30.662;2024-01-25T09:10:18;3.63;;;2.08;;
53688;SDS011;39583;54.682;30.662;2024-01-25T09:12:46;4.22;;;2.45;;
53688;SDS011;39583;54.682;30.662;2024-01-25T09:15:13;5.57;;;2.67;;
53688;SDS011;39583;54.682;30.662;2024-01-25T09:17:41;5.88;;;2.47;;
53688;SDS011;39583;54.682;30.662;2024-01-25T09:20:18;5.10;;;2.28;;
53688;SDS011;39583;54.682;30.662;2024-01-25T09:22:51;5.63;;;2.35;;
53688;SDS011;39583;54.682;30.662;2024-01-25T09:27:52;5.20;;;2.60;;
53688;SDS011;39583;54.682;30.662;2024-01-25T09:30:22;8.10;;;2.83;;
53688;SDS011;39583;54.682;30.662;2024-01-25T09:32:51;7.63;;;3.13;;
53688;SDS011;39583;54.682;30.662;2024-01-25T09:35:23;11.10;;;3.45;;
53688;SDS011;39583;54.682;30.662;2024-01-25T09:37:51;6.15;;;3.45;;
53688;SDS011;39583;54.682;30.662;2024-01-25T09:40:20;8.77;;;3.70;;
53688;SDS011;39583;54.682;30.662;2024-01-25T09:42:56;6.05;;;2.95;;
53688;SDS011;39583;54.682;30.662;2024-01-25T09:45:24;6.35;;;3.55;;
53688;SDS011;39583;54.682;30.662;2024-01-25T09:47:52;6.05;;;3.35;;
53688;SDS011;39583;54.682;30.662;2024-01-25T09:50:20;4.55;;;2.75;;
53688;SDS011;39583;54.682;30.662;2024-01-25T09:52:55;5.38;;;2.72;;
53688;SDS011;39583;54.682;30.662;2024-01-25T09:55:25;4.30;;;2.63;;
53688;SDS011;39583;54.682;30.662;2024-01-25T09:57:53;4.78;;;2.92;;
53688;SDS011;39583;54.682;30.662;2024-01-25T10:00:23;5.60;;;3.38;;
53688;SDS011;39583;54.682;30.662;2024-01-25T10:02:50;10.02;;;4.10;;
53688;SDS011;39583;54.682;30.662;2024-01-25T10:05:18;13.07;;;4.80;;
53688;SDS011;39583;54.682;30.662;2024-01-25T10:07:47;16.75;;;5.88;;
53688;SDS011;39583;54.682;30.662;2024-01-25T10:10:16;26.67;;;8.15;;
53688;SDS011;39583;54.682;30.662;2024-01-25T10:12:44;22.77;;;7.72;;
53688;SDS011;39583;54.682;30.662;2024-01-25T10:15:11;16.88;;;6.32;;
53688;SDS011;39583;54.682;30.662;2024-01-25T10:17:39;11.73;;;5.22;;
53688;SDS011;39583;54.682;30.662;2024-01-25T10:20:27;12.05;;;5.30;;
53688;SDS011;39583;54.682;30.662;2024-01-25T10:22:58;13.23;;;6.35;;
53688;SDS011;39583;54.682;30.662;2024-01-25T10:25:27;9.70;;;5.75;;
53688;SDS011;39583;54.682;30.662;2024-01-25T10:27:55;7.95;;;4.82;;
53688;SDS011;39583;54.682;30.662;2024-01-25T10:30:23;11.50;;;5.10;;
53688;SDS011;39583;54.682;30.662;2024-01-25T10:32:51;10.60;;;5.38;;
53688;SDS011;39583;54.682;30.662;2024-01-25T10:35:20;9.00;;;5.40;;
53688;SDS011;39583;54.682;30.662;2024-01-25T10:37:51;11.05;;;6.10;;
53688;SDS011;39583;54.682;30.662;2024-01-25T10:40:19;14.32;;;7.90;;
53688;SDS011;39583;54.682;30.662;2024-01-25T10:42:47;16.95;;;7.53;;
53688;SDS011;39583;54.682;30.662;2024-01-25T10:45:15;11.15;;;6.55;;
53688;SDS011;39583;54.682;30.662;2024-01-25T10:47:43;9.52;;;5.53;;
53688;SDS011;39583;54.682;30.662;2024-01-25T10:50:12;7.03;;;4.13;;
53688;SDS011;39583;54.682;30.662;2024-01-25T10:52:41;5.95;;;3.65;;
53688;SDS011;39583;54.682;30.662;2024-01-25T10:55:09;7.63;;;4.25;;
53688;SDS011;39583;54.682;30.662;2024-01-25T11:00:07;6.00;;;3.42;;
53688;SDS011;39583;54.682;30.662;2024-01-25T11:02:41;5.82;;;4.15;;
53688;SDS011;39583;54.682;30.662;2024-01-25T11:05:15;8.55;;;4.30;;
53688;SDS011;39583;54.682;30.662;2024-01-25T11:07:47;5.63;;;3.70;;
53688;SDS011;39583;54.682;30.662;2024-01-25T11:10:16;5.85;;;3.70;;
53688;SDS011;39583;54.682;30.662;2024-01-25T11:12:48;7.90;;;4.40;;
53688;SDS011;39583;54.682;30.662;2024-01-25T11:15:17;7.53;;;3.90;;
53688;SDS011;39583;54.682;30.662;2024-01-25T11:17:50;7.78;;;3.65;;
53688;SDS011;39583;54.682;30.662;2024-01-25T11:20:19;5.88;;;3.30;;
53688;SDS011;39583;54.682;30.662;2024-01-25T11:22:47;4.25;;;2.60;;
53688;SDS011;39583;54.682;30.662;2024-01-25T11:25:21;4.85;;;2.88;;
53688;SDS011;39583;54.682;30.662;2024-01-25T11:27:49;5.53;;;3.28;;
53688;SDS011;39583;54.682;30.662;2024-01-25T11:30:18;7.55;;;3.30;;
53688;SDS011;39583;54.682;30.662;2024-01-25T11:32:49;6.63;;;3.60;;
53688;SDS011;39583;54.682;30.662;2024-01-25T11:35:16;7.30;;;3.65;;
53688;SDS011;39583;54.682;30.662;2024-01-25T11:37:45;7.30;;;4.57;;
53688;SDS011;39583;54.682;30.662;2024-01-25T11:40:14;6.35;;;3.42;;
53688;SDS011;39583;54.682;30.662;2024-01-25T11:42:42;7.63;;;3.75;;
53688;SDS011;39583;54.682;30.662;2024-01-25T11:45:10;4.82;;;2.90;;
53688;SDS011;39583;54.682;30.662;2024-01-25T11:47:38;5.93;;;3.20;;
53688;SDS011;39583;54.682;30.662;2024-01-25T11:50:07;5.88;;;3.47;;
53688;SDS011;39583;54.682;30.662;2024-01-25T11:52:35;5.60;;;3.50;;
53688;SDS011;39583;54.682;30.662;2024-01-25T11:57:31;4.65;;;2.70;;
53688;SDS011;39583;54.682;30.662;2024-01-25T11:59:59;5.00;;;2.95;;
53688;SDS011;39583;54.682;30.662;2024-01-25T12:02:27;5.68;;;3.08;;
53688;SDS011;39583;54.682;30.662;2024-01-25T12:04:56;6.63;;;3.03;;
53688;SDS011;39583;54.682;30.662;2024-01-25T12:07:24;5.50;;;3.03;;
53688;SDS011;39583;54.682;30.662;2024-01-25T12:10:02;6.22;;;3.80;;
53688;SDS011;39583;54.682;30.662;2024-01-25T12:12:30;5.13;;;3.13;;
53688;SDS011;39583;54.682;30.662;2024-01-25T12:14:58;4.10;;;2.63;;
53688;SDS011;39583;54.682;30.662;2024-01-25T12:17:26;6.25;;;2.47;;
53688;SDS011;39583;54.682;30.662;2024-01-25T12:19:56;5.20;;;3.00;;
53688;SDS011;39583;54.682;30.662;2024-01-25T12:22:24;4.13;;;2.65;;
53688;SDS011;39583;54.682;30.662;2024-01-25T12:24:55;6.00;;;3.60;;
53688;SDS011;39583;54.682;30.662;2024-01-25T12:27:27;6.57;;;3.35;;
53688;SDS011;39583;54.682;30.662;2024-01-25T12:29:54;5.32;;;3.30;;
53688;SDS011;39583;54.682;30.662;2024-01-25T12:32:22;5.75;;;3.42;;
53688;SDS011;39583;54.682;30.662;2024-01-25T12:34:56;8.13;;;3.50;;
53688;SDS011;39583;54.682;30.662;2024-01-25T12:37:24;7.53;;;3.70;;
53688;SDS011;39583;54.682;30.662;2024-01-25T12:39:52;9.68;;;3.97;;
53688;SDS011;39583;54.682;30.662;2024-01-25T12:42:21;7.70;;;4.13;;
53688;SDS011;39583;54.682;30.662;2024-01-25T12:44:50;7.38;;;4.10;;
53688;SDS011;39583;54.682;30.662;2024-01-25T12:47:18;10.10;;;5.97;;
53688;SDS011;39583;54.682;30.662;2024-01-25T12:49:46;16.70;;;7.00;;
53688;SDS011;39583;54.682;30.662;2024-01-25T12:52:14;21.80;;;7.38;;
53688;SDS011;39583;54.682;30.662;2024-01-25T12:54:42;18.70;;;8.02;;
53688;SDS011;39583;54.682;30.662;2024-01-25T12:57:11;15.73;;;6.88;;
53688;SDS011;39583;54.682;30.662;2024-01-25T12:59:39;15.82;;;6.15;;
53688;SDS011;39583;54.682;30.662;2024-01-25T13:02:07;11.35;;;4.93;;
53688;SDS011;39583;54.682;30.662;2024-01-25T13:04:35;10.73;;;5.13;;
53688;SDS011;39583;54.682;30.662;2024-01-25T13:07:04;9.98;;;4.28;;
53688;SDS011;39583;54.682;30.662;2024-01-25T13:09:31;11.80;;;5.05;;
53688;SDS011;39583;54.682;30.662;2024-01-25T13:12:01;12.13;;;4.57;;
53688;SDS011;39583;54.682;30.662;2024-01-25T13:14:28;11.10;;;4.22;;
53688;SDS011;39583;54.682;30.662;2024-01-25T13:16:56;10.68;;;4.10;;
53688;SDS011;39583;54.682;30.662;2024-01-25T13:19:23;25.17;;;4.00;;
53688;SDS011;39583;54.682;30.662;2024-01-25T13:21:51;25.55;;;3.85;;
53688;SDS011;39583;54.682;30.662;2024-01-25T13:24:19;32.20;;;3.63;;
53688;SDS011;39583;54.682;30.662;2024-01-25T13:26:46;38.25;;;3.50;;
53688;SDS011;39583;54.682;30.662;2024-01-25T13:29:14;29.20;;;3.25;;
53688;SDS011;39583;54.682;30.662;2024-01-25T13:31:42;24.77;;;3.30;;
53688;SDS011;39583;54.682;30.662;2024-01-25T13:34:09;25.45;;;3.05;;
53688;SDS011;39583;54.682;30.662;2024-01-25T13:36:37;31.05;;;3.75;;
53688;SDS011;39583;54.682;30.662;2024-01-25T13:39:05;18.52;;;3.72;;
53688;SDS011;39583;54.682;30.662;2024-01-25T13:41:33;41.55;;;4.03;;
53688;SDS011;39583;54.682;30.662;2024-01-25T13:44:00;44.63;;;4.80;;
53688;SDS011;39583;54.682;30.662;2024-01-25T13:46:28;37.78;;;4.70;;
53688;SDS011;39583;54.682;30.662;2024-01-25T13:48:56;45.20;;;4.85;;
53688;SDS011;39583;54.682;30.662;2024-01-25T13:51:23;47.22;;;5.10;;
53688;SDS011;39583;54.682;30.662;2024-01-25T13:53:51;30.60;;;5.45;;
53688;SDS011;39583;54.682;30.662;2024-01-25T13:56:18;23.30;;;5.30;;
53688;SDS011;39583;54.682;30.662;2024-01-25T13:58:46;54.72;;;5.75;;
53688;SDS011;39583;54.682;30.662;2024-01-25T14:01:14;50.95;;;5.63;;
53688;SDS011;39583;54.682;30.662;2024-01-25T14:03:42;44.30;;;5.20;;
53688;SDS011;39583;54.682;30.662;2024-01-25T14:06:11;32.70;;;5.68;;
53688;SDS011;39583;54.682;30.662;2024-01-25T14:08:39;32.72;;;5.47;;
53688;SDS011;39583;54.682;30.662;2024-01-25T14:11:07;31.45;;;5.18;;
53688;SDS011;39583;54.682;30.662;2024-01-25T14:13:34;46.72;;;6.05;;
53688;SDS011;39583;54.682;30.662;2024-01-25T14:16:02;54.85;;;5.97;;
53688;SDS011;39583;54.682;30.662;2024-01-25T14:18:35;48.83;;;6.03;;
53688;SDS011;39583;54.682;30.662;2024-01-25T14:21:03;42.92;;;5.25;;
53688;SDS011;39583;54.682;30.662;2024-01-25T14:23:32;49.53;;;5.65;;
53688;SDS011;39583;54.682;30.662;2024-01-25T14:26:01;90.55;;;7.00;;
53688;SDS011;39583;54.682;30.662;2024-01-25T14:28:29;65.82;;;6.85;;
53688;SDS011;39583;54.682;30.662;2024-01-25T14:30:56;41.65;;;6.13;;
53688;SDS011;39583;54.682;30.662;2024-01-25T14:33:24;52.20;;;6.43;;
53688;SDS011;39583;54.682;30.662;2024-01-25T14:35:51;45.83;;;6.07;;
53688;SDS011;39583;54.682;30.662;2024-01-25T14:38:19;42.20;;;5.97;;
53688;SDS011;39583;54.682;30.662;2024-01-25T14:40:46;43.97;;;5.55;;
53688;SDS011;39583;54.682;30.662;2024-01-25T14:43:25;41.58;;;5.68;;
53688;SDS011;39583;54.682;30.662;2024-01-25T14:45:52;59.13;;;6.47;;
53688;SDS011;39583;54.682;30.662;2024-01-25T14:48:20;63.13;;;7.32;;
53688;SDS011;39583;54.682;30.662;2024-01-25T14:50:48;54.22;;;6.78;;
53688;SDS011;39583;54.682;30.662;2024-01-25T14:53:15;71.40;;;7.70;;
53688;SDS011;39583;54.682;30.662;2024-01-25T14:55:45;47.08;;;8.00;;
53688;SDS011;39583;54.682;30.662;2024-01-25T14:58:12;49.55;;;7.43;;
53688;SDS011;39583;54.682;30.662;2024-01-25T15:00:44;43.58;;;8.27;;
53688;SDS011;39583;54.682;30.662;2024-01-25T15:03:12;35.05;;;7.15;;
53688;SDS011;39583;54.682;30.662;2024-01-25T15:05:40;38.75;;;8.23;;
53688;SDS011;39583;54.682;30.662;2024-01-25T15:08:08;55.97;;;9.10;;
53688;SDS011;39583;54.682;30.662;2024-01-25T15:10:55;45.30;;;9.05;;
53688;SDS011;39583;54.682;30.662;2024-01-25T15:13:23;39.22;;;9.25;;
53688;SDS011;39583;54.682;30.662;2024-01-25T15:15:51;35.28;;;9.30;;
53688;SDS011;39583;54.682;30.662;2024-01-25T15:18:18;23.45;;;9.15;;
53688;SDS011;39583;54.682;30.662;2024-01-25T15:20:46;41.83;;;8.48;;
53688;SDS011;39583;54.682;30.662;2024-01-25T15:23:15;63.65;;;9.57;;
53688;SDS011;39583;54.682;30.662;2024-01-25T15:25:42;55.42;;;9.65;;
53688;SDS011;39583;54.682;30.662;2024-01-25T15:28:10;41.60;;;8.63;;
53688;SDS011;39583;54.682;30.662;2024-01-25T15:30:37;41.63;;;8.70;;
53688;SDS011;39583;54.682;30.662;2024-01-25T15:33:07;57.13;;;8.73;;
53688;SDS011;39583;54.682;30.662;2024-01-25T15:35:35;43.58;;;8.05;;
53688;SDS011;39583;54.682;30.662;2024-01-25T15:38:03;75.65;;;8.77;;
53688;SDS011;39583;54.682;30.662;2024-01-25T15:40:33;54.92;;;9.05;;
53688;SDS011;39583;54.682;30.662;2024-01-25T15:43:03;39.70;;;8.27;;
53688;SDS011;39583;54.682;30.662;2024-01-25T15:45:31;70.13;;;9.98;;
53688;SDS011;39583;54.682;30.662;2024-01-25T15:47:59;51.45;;;8.30;;
53688;SDS011;39583;54.682;30.662;2024-01-25T15:50:26;94.63;;;9.98;;
53688;SDS011;39583;54.682;30.662;2024-01-25T15:52:54;56.13;;;8.38;;
53688;SDS011;39583;54.682;30.662;2024-01-25T15:55:21;60.92;;;10.10;;
53688;SDS011;39583;54.682;30.662;2024-01-25T15:57:49;58.70;;;9.20;;
53688;SDS011;39583;54.682;30.662;2024-01-25T16:00:17;45.60;;;9.15;;
53688;SDS011;39583;54.682;30.662;2024-01-25T16:02:44;56.67;;;9.73;;
53688;SDS011;39583;54.682;30.662;2024-01-25T16:05:12;78.18;;;9.52;;
53688;SDS011;39583;54.682;30.662;2024-01-25T16:07:40;168.50;;;11.90;;
53688;SDS011;39583;54.682;30.662;2024-01-25T16:10:16;127.25;;;11.07;;
53688;SDS011;39583;54.682;30.662;2024-01-25T16:12:44;127.30;;;11.50;;
53688;SDS011;39583;54.682;30.662;2024-01-25T16:15:11;68.28;;;9.45;;
53688;SDS011;39583;54.682;30.662;2024-01-25T16:17:39;89.18;;;9.95;;
53688;SDS011;39583;54.682;30.662;2024-01-25T16:20:07;43.63;;;9.93;;
53688;SDS011;39583;54.682;30.662;2024-01-25T16:22:34;68.82;;;10.50;;
53688;SDS011;39583;54.682;30.662;2024-01-25T16:25:04;46.97;;;10.38;;
53688;SDS011;39583;54.682;30.662;2024-01-25T16:27:32;60.08;;;10.02;;
53688;SDS011;39583;54.682;30.662;2024-01-25T16:30:00;107.43;;;8.73;;
53688;SDS011;39583;54.682;30.662;2024-01-25T16:32:27;80.95;;;9.07;;
53688;SDS011;39583;54.682;30.662;2024-01-25T16:34:55;78.80;;;7.75;;
53688;SDS011;39583;54.682;30.662;2024-01-25T16:37:22;78.43;;;7.95;;
53688;SDS011;39583;54.682;30.662;2024-01-25T16:39:50;75.97;;;8.35;;
53688;SDS011;39583;54.682;30.662;2024-01-25T16:42:18;68.50;;;6.57;;
53688;SDS011;39583;54.682;30.662;2024-01-25T16:44:46;79.03;;;7.32;;
53688;SDS011;39583;54.682;30.662;2024-01-25T16:47:13;49.88;;;7.68;;
53688;SDS011;39583;54.682;30.662;2024-01-25T16:49:41;55.40;;;7.40;;
53688;SDS011;39583;54.682;30.662;2024-01-25T16:52:09;43.67;;;7.43;;
53688;SDS011;39583;54.682;30.662;2024-01-25T16:54:38;50.33;;;8.68;;
53688;SDS011;39583;54.682;30.662;2024-01-25T16:57:05;113.72;;;9.18;;
53688;SDS011;39583;54.682;30.662;2024-01-25T16:59:32;52.70;;;6.97;;
53688;SDS011;39583;54.682;30.662;2024-01-25T17:02:01;48.50;;;7.40;;
53688;SDS011;39583;54.682;30.662;2024-01-25T17:04:30;75.22;;;7.00;;
53688;SDS011;39583;54.682;30.662;2024-01-25T17:06:57;171.02;;;9.48;;
53688;SDS011;39583;54.682;30.662;2024-01-25T17:09:25;102.90;;;8.10;;
53688;SDS011;39583;54.682;30.662;2024-01-25T17:11:54;54.60;;;7.65;;
53688;SDS011;39583;54.682;30.662;2024-01-25T17:14:21;64.53;;;7.03;;
53688;SDS011;39583;54.682;30.662;2024-01-25T17:16:49;50.83;;;6.05;;
53688;SDS011;39583;54.682;30.662;2024-01-25T17:19:17;40.95;;;6.63;;
53688;SDS011;39583;54.682;30.662;2024-01-25T17:21:46;37.03;;;7.00;;
53688;SDS011;39583;54.682;30.662;2024-01-25T17:24:13;42.50;;;7.47;;
53688;SDS011;39583;54.682;30.662;2024-01-25T17:26:41;53.60;;;7.07;;
53688;SDS011;39583;54.682;30.662;2024-01-25T17:29:08;45.38;;;7.45;;
53688;SDS011;39583;54.682;30.662;2024-01-25T17:31:36;34.95;;;6.80;;
53688;SDS011;39583;54.682;30.662;2024-01-25T17:34:04;35.45;;;6.20;;
53688;SDS011;39583;54.682;30.662;2024-01-25T17:36:32;35.05;;;6.28;;
53688;SDS011;39583;54.682;30.662;2024-01-25T17:38:59;58.40;;;6.90;;
53688;SDS011;39583;54.682;30.662;2024-01-25T17:41:27;46.10;;;6.65;;
53688;SDS011;39583;54.682;30.662;2024-01-25T17:43:54;52.55;;;6.82;;
53688;SDS011;39583;54.682;30.662;2024-01-25T17:46:21;33.45;;;6.32;;
53688;SDS011;39583;54.682;30.662;2024-01-25T17:48:49;51.58;;;6.75;;
53688;SDS011;39583;54.682;30.662;2024-01-25T17:51:19;31.42;;;6.63;;
53688;SDS011;39583;54.682;30.662;2024-01-25T17:53:47;24.92;;;6.85;;
53688;SDS011;39583;54.682;30.662;2024-01-25T17:56:14;21.63;;;6.90;;
53688;SDS011;39583;54.682;30.662;2024-01-25T17:58:42;22.85;;;6.28;;
53688;SDS011;39583;54.682;30.662;2024-01-25T18:01:10;50.15;;;7.63;;
53688;SDS011;39583;54.682;30.662;2024-01-25T18:03:37;26.75;;;6.97;;
53688;SDS011;39583;54.682;30.662;2024-01-25T18:06:05;24.58;;;6.10;;
53688;SDS011;39583;54.682;30.662;2024-01-25T18:08:33;60.40;;;7.20;;
53688;SDS011;39583;54.682;30.662;2024-01-25T18:11:01;101.72;;;7.88;;
53688;SDS011;39583;54.682;30.662;2024-01-25T18:13:29;89.38;;;6.40;;
53688;SDS011;39583;54.682;30.662;2024-01-25T18:15:56;45.95;;;6.15;;
53688;SDS011;39583;54.682;30.662;2024-01-25T18:18:24;51.10;;;6.90;;
53688;SDS011;39583;54.682;30.662;2024-01-25T18:20:52;52.42;;;6.93;;
53688;SDS011;39583;54.682;30.662;2024-01-25T18:23:19;39.50;;;6.70;;
53688;SDS011;39583;54.682;30.662;2024-01-25T18:25:47;49.35;;;6.57;;
53688;SDS011;39583;54.682;30.662;2024-01-25T18:28:15;64.90;;;7.32;;
53688;SDS011;39583;54.682;30.662;2024-01-25T18:30:43;56.30;;;6.47;;
53688;SDS011;39583;54.682;30.662;2024-01-25T18:33:11;100.00;;;7.57;;
53688;SDS011;39583;54.682;30.662;2024-01-25T18:35:39;36.75;;;5.43;;
53688;SDS011;39583;54.682;30.662;2024-01-25T18:38:06;23.38;;;5.45;;
53688;SDS011;39583;54.682;30.662;2024-01-25T18:40:34;38.80;;;5.20;;
53688;SDS011;39583;54.682;30.662;2024-01-25T18:43:01;58.97;;;5.75;;
53688;SDS011;39583;54.682;30.662;2024-01-25T18:45:30;34.88;;;4.82;;
53688;SDS011;39583;54.682;30.662;2024-01-25T18:47:57;38.25;;;4.18;;
